Home > Products > Valid Products > TAF

000
FTUS41 KGYX 200521
TAFAUG
TAF
KAUG 200521Z 2006/2106 32008KT P6SM SCT060
     FM201300 26006KT P6SM BKN250
     FM210000 VRB03KT P6SM BKN250=



000
FTUS41 KGYX 200521
TAFPWM
TAF
KPWM 200521Z 2006/2106 28008KT P6SM OVC060
     FM200700 27004KT P6SM SKC
     FM201300 26007KT P6SM BKN250=



000
FTUS41 KGYX 200521
TAFPSM
TAF
KPSM 200521Z 2006/2106 25007KT P6SM BKN250
     FM202100 24005KT P6SM BKN100 OVC250=



000
FTUS41 KGYX 200521
TAFLEB
TAF
KLEB 200521Z 2006/2106 19004KT P6SM OVC050
      TEMPO 2009/2011 00000KT 3SM BR SKC
     FM201300 24004KT P6SM FEW080 BKN250=



000
FTUS41 KGYX 200521
TAFCON
TAF
KCON 200521Z 2006/2106 32005KT P6SM SCT060
     FM201300 27005KT P6SM FEW050 BKN250
     FM210000 00000KT P6SM OVC250=



000
FTUS41 KGYX 192320
TAFLEB
TAF
KLEB 192320Z 2000/2024 33007KT P6SM OVC060
     FM200900 00000KT 3SM BR SKC
     FM201300 24004KT P6SM FEW080 BKN250
     FM201800 24005KT P6SM BKN100 OVC250=



000
FTUS41 KGYX 192320
TAFPWM
TAF
KPWM 192320Z 2000/2024 32008KT P6SM OVC060
     FM200700 27004KT P6SM SKC
     FM201300 26007KT P6SM BKN250
     FM202000 24005KT P6SM BKN100 OVC250=



000
FTUS41 KGYX 192320
TAFAUG
TAF
KAUG 192320Z 2000/2024 30008KT P6SM BKN060
     FM201300 26005KT P6SM FEW050 BKN250
     FM202000 24005KT P6SM BKN100 OVC250=



000
FTUS41 KGYX 192320
TAFCON
TAF
KCON 192320Z 2000/2024 32009KT P6SM OVC060
     FM201300 27005KT P6SM FEW050 BKN250
     FM202000 24005KT P6SM BKN100 OVC250=



000
FTUS41 KGYX 192320
TAFPSM
TAF
KPSM 192320Z 2000/2024 31010G20KT P6SM BKN070
     FM200600 25007KT P6SM BKN250
     FM202100 24005KT P6SM BKN100 OVC250=



000
FTUS41 KGYX 192320
TAFAUG
TAF
KAUG 192320Z 2000/2024 30008KT P6SM BKN060
     FM201300 26005KT P6SM FEW050 BKN250
     FM202000 24005KT P6SM BKN100 OVC250=



000
FTUS41 KGYX 192320
TAFLEB
TAF
KLEB 192320Z 2000/2024 33007KT P6SM OVC060
     FM200900 00000KT 3SM BR SKC
     FM201300 24004KT P6SM FEW080 BKN250
     FM201800 24005KT P6SM BKN100 OVC250=



000
FTUS41 KGYX 192320
TAFCON
TAF
KCON 192320Z 2000/2024 32009KT P6SM OVC060
     FM201300 27005KT P6SM FEW050 BKN250
     FM202000 24005KT P6SM BKN100 OVC250=



000
FTUS41 KGYX 192320
TAFPWM
TAF
KPWM 192320Z 2000/2024 32008KT P6SM OVC060
     FM200700 27004KT P6SM SKC
     FM201300 26007KT P6SM BKN250
     FM202000 24005KT P6SM BKN100 OVC250=



000
FTUS41 KGYX 192320
TAFPSM
TAF
KPSM 192320Z 2000/2024 31010G20KT P6SM BKN070
     FM200600 25007KT P6SM BKN250
     FM202100 24005KT P6SM BKN100 OVC250=



000
FTUS41 KGYX 191720
TAFPWM
TAF
KPWM 191720Z 1918/2018 34012G18KT P6SM BKN060 BKN100
     FM200000 31008KT P6SM SKC
     FM200700 27004KT P6SM SKC
     FM201300 26007KT P6SM BKN250=



000
FTUS41 KGYX 191720
TAFCON
TAF
KCON 191720Z 1918/2018 32015G25KT P6SM BKN040 BKN090
     FM200000 31005KT P6SM FEW090
     FM201300 27005KT P6SM FEW050 BKN250=



000
FTUS41 KGYX 191720
TAFAUG
TAF
KAUG 191720Z 1918/2018 32011G18KT P6SM SCT060 BKN080
      TEMPO 1918/1922 BKN050 BKN080
     FM200000 29006KT P6SM SKC
     FM201300 26005KT P6SM FEW050 BKN250=



000
FTUS41 KGYX 191720
TAFLEB
TAF
KLEB 191720Z 1918/2018 33008G16KT P6SM BKN040 BKN080
     FM200000 VRB03KT P6SM SCT040 SCT100
     FM200900 00000KT 3SM BR SKC
     FM201300 24004KT P6SM FEW080 BKN250=



000
FTUS41 KGYX 191720
TAFPSM
TAF
KPSM 191720Z 1918/2018 30012G18KT P6SM SCT060 BKN100
     FM200000 28007KT P6SM SKC
     FM201300 25007KT P6SM BKN250=



000
FTUS41 KGYX 191508 AAA
TAFLEB
TAF AMD
KLEB 191508Z 1915/2012 33008G16KT P6SM SCT025 OVC035
      TEMPO 1915/1919 BKN025
     FM200000 VRB03KT P6SM SCT040 SCT100
     FM200700 00000KT 3SM BR SKC
      TEMPO 2007/2011 1/2SM FG VV002=



000
FTUS41 KGYX 191506 AAA
TAFPWM
TAF AMD
KPWM 191506Z 1915/2012 33012G18KT P6SM BKN050 BKN100
     FM192100 32012KT P6SM SCT050 BKN100
     FM200000 31008KT P6SM SKC
     FM200700 27004KT P6SM SKC=



000
FTUS41 KGYX 191505 AAA
TAFPSM
TAF AMD
KPSM 191505Z 1915/2012 32012G22KT P6SM SCT040 SCT100
     FM191800 31012KT P6SM BKN050 BKN080
     FM200000 30008KT P6SM SKC
     FM200700 28005KT P6SM SKC=



000
FTUS41 KGYX 191120
TAFPWM
TAF
KPWM 191120Z 1912/2012 31012G18KT P6SM BKN045 OVC100
     FM192100 32012KT P6SM OVC100
     FM200000 31008KT P6SM SKC
     FM200700 27004KT P6SM SKC=



000
FTUS41 KGYX 191120
TAFLEB
TAF
KLEB 191120Z 1912/2012 33008G16KT P6SM OVC030
     FM191400 32011G18KT P6SM BKN050
     FM200000 VRB03KT P6SM SKC
     FM200700 00000KT 3SM BR SKC
      TEMPO 2007/2011 1/2SM FG VV002=



000
FTUS41 KGYX 191120
TAFCON
TAF
KCON 191120Z 1912/2012 31011G18KT P6SM BKN030 OVC080
     FM191400 31012G19KT P6SM BKN050 BKN080
     FM200000 31005KT P6SM SKC=



000
FTUS41 KGYX 191120
TAFPSM
TAF
KPSM 191120Z 1912/2012 29012KT P6SM SCT040 BKN080
     FM191600 31012KT P6SM BKN050 BKN080
     FM200000 30008KT P6SM SKC
     FM200700 28005KT P6SM SKC=



000
FTUS41 KGYX 191120
TAFAUG
TAF
KAUG 191120Z 1912/2012 31012G19KT P6SM BKN060
     FM191800 32011KT P6SM VCSH BKN050
     FM200200 32008KT P6SM SKC=



000
FTUS41 KGYX 190923 AAA
TAFLEB
TAF AMD
KLEB 190923Z 1909/2006 33008G16KT P6SM OVC020
     FM191400 32011G18KT P6SM BKN050
     FM200000 VRB03KT P6SM SKC
      TEMPO 2004/2006 1/2SM FG VV002=



000
FTUS41 KGYX 190922 AAA
TAFCON
TAF AMD
KCON 190922Z 1909/2006 31011G18KT P6SM BKN050 OVC080
     FM191400 31012G19KT P6SM BKN050 BKN080
     FM200000 31005KT P6SM SKC=



000
FTUS41 KGYX 190922 AAA
TAFPSM
TAF AMD
KPSM 190922Z 1909/2006 29007KT P6SM SCT030 BKN060
     FM191600 31012KT P6SM BKN050 BKN080
     FM200000 30008KT P6SM SKC
     FM200500 28005KT P6SM SKC=



000
FTUS41 KGYX 190921 AAA
TAFAUG
TAF AMD
KAUG 190921Z 1909/2006 31007G16KT P6SM BKN060
     FM191200 33010KT P6SM BKN100
     FM191800 32011KT P6SM BKN050
     FM200000 32008KT P6SM SKC=



000
FTUS41 KGYX 190921 AAA
TAFPWM
TAF AMD
KPWM 190921Z 1909/2006 31012KT P6SM BKN040 OVC100
     FM192100 32012KT P6SM OVC100
     FM200000 31008KT P6SM SKC
     FM200500 27004KT P6SM SKC=



000
FTUS41 KGYX 190520
TAFCON
TAF
KCON 190520Z 1906/2006 31005KT P6SM BKN050 OVC080
     FM191400 31012G19KT P6SM BKN050 BKN080
     FM200000 31005KT P6SM SKC=



000
FTUS41 KGYX 190520
TAFPSM
TAF
KPSM 190520Z 1906/2006 29007KT P6SM SCT030 BKN060
     FM191600 31012KT P6SM BKN050 BKN080
     FM200000 30008KT P6SM SKC
     FM200500 28005KT P6SM SKC=



000
FTUS41 KGYX 190520
TAFAUG
TAF
KAUG 190520Z 1906/2006 31004KT P6SM BKN250
     FM191200 33010KT P6SM BKN100
     FM191800 32011KT P6SM BKN050
     FM200000 32008KT P6SM SKC=



000
FTUS41 KGYX 190520
TAFPWM
TAF
KPWM 190520Z 1906/2006 27007KT P6SM OVC100
     FM190900 32009KT P6SM OVC050
     FM192100 32012KT P6SM OVC100
     FM200000 31008KT P6SM SKC
     FM200500 27004KT P6SM SKC=



000
FTUS41 KGYX 190520
TAFLEB
TAF
KLEB 190520Z 1906/2006 33007KT P6SM OVC030
     FM191400 32011G18KT P6SM BKN050
     FM200000 VRB03KT P6SM SKC
      TEMPO 2004/2006 1/2SM FG VV002=



000
FTUS41 KGYX 182325
TAFCON
TAF
KCON 182325Z 1900/1924 29004KT P6SM BKN120
     FM190300 28004KT P6SM BKN050 OVC080
     FM191400 32015G25KT P6SM BKN050 BKN080=



000
FTUS41 KGYX 182325
TAFAUG
TAF
KAUG 182325Z 1900/1924 20004KT P6SM BKN080 OVC100
     FM190200 28004KT P6SM BKN045 OVC100
     FM190600 30006KT P6SM SCT050 BKN100
     FM191400 32012G22KT P6SM BKN040 BKN080=



000
FTUS41 KGYX 182325
TAFPWM
TAF
KPWM 182325Z 1900/1924 26007KT P6SM FEW045 BKN060
     FM190200 26005KT P6SM BKN050 BKN080
     FM190600 27005KT P6SM BKN100
     FM191700 32013G23KT P6SM SKC=



000
FTUS41 KGYX 182325
TAFPSM
TAF
KPSM 182325Z 1900/1924 30005KT P6SM SCT030 BKN120
     FM191600 31012G22KT P6SM BKN050 BKN080=



000
FTUS41 KGYX 182325
TAFLEB
TAF
KLEB 182325Z 1900/1924 15003KT P6SM BKN045
     FM190600 31007KT P6SM OVC040
     FM191400 32012G22KT P6SM BKN050=



000
FTUS41 KGYX 181720
TAFLEB
TAF
KLEB 181720Z 1818/1918 20009KT P6SM -SHRA SCT015 BKN025 OVC045
      TEMPO 1818/1822 2SM SHRA SCT025 BKN045 OVC070
     FM182200 24005KT P6SM -SHRA SCT025 BKN050 OVC070
     FM190000 27005KT P6SM VCSH BKN040 OVC060
     FM190600 31007KT P6SM OVC040
     FM191400 32012G22KT P6SM OVC050=



000
FTUS41 KGYX 181720
TAFPWM
TAF
KPWM 181720Z 1818/1918 21008KT P6SM SCT020 BKN045 BKN090
      TEMPO 1818/1822 -SHRA BKN025 OVC040
     FM182200 21008KT P6SM -SHRA SCT025 OVC040
     FM190200 26005KT P6SM BKN050 BKN080
     FM190600 27005KT P6SM BKN100
     FM191400 32013G23KT P6SM SKC=



000
FTUS41 KGYX 181720
TAFAUG
TAF
KAUG 181720Z 1818/1918 20008G16KT P6SM SCT025 BKN050 BKN080
      TEMPO 1818/1822 -SHRA BKN025 OVC040
     FM182200 25005KT P6SM -SHRA SCT025 OVC040
     FM190200 28004KT P6SM BKN040 OVC100
     FM190600 30006KT P6SM SCT050 BKN100
     FM191400 32012G22KT P6SM BKN040 BKN080=



000
FTUS41 KGYX 181720
TAFPSM
TAF
KPSM 181720Z 1818/1918 24008KT P6SM -SHRA SCT025 BKN045 BKN090
     FM190000 26006KT P6SM SCT050 BKN100
     FM191400 31012G22KT P6SM BKN050 BKN080=



000
FTUS41 KGYX 181720
TAFCON
TAF
KCON 181720Z 1818/1918 23005KT P6SM -SHRA SCT025 BKN045 OVC080
      TEMPO 1819/1820 5SM -SHRA BR BKN025 OVC040
     FM182000 26006KT P6SM -SHRA SCT025 BKN045 OVC080
     FM190100 28004KT P6SM BKN050 OVC080
     FM191400 32015G25KT P6SM BKN050 BKN080=



000
FTUS41 KGYX 181415 AAA
TAFLEB
TAF AMD
KLEB 181415Z 1814/1912 17004KT P6SM -SHRA OVC010
     FM181600 20005KT P6SM -SHRA SCT015 BKN050 OVC070
     FM190000 27005KT P6SM OVC050=



000
FTUS41 KGYX 181317 AAA
TAFPSM
TAF AMD
KPSM 181317Z 1813/1912 20005KT 5SM BR OVC012
     FM181700 24007KT P6SM -SHRA SCT020 BKN050 OVC080
     FM190300 26006KT P6SM BKN100=



000
FTUS41 KGYX 181208 AAB
TAFAUG
TAF AMD
KAUG 181208Z 1812/1912 21008G16KT 5SM BR VV002
     FM181400 20008G16KT P6SM BKN050 BKN080
     FM181500 18004KT P6SM OVC050
     FM182300 25005KT P6SM VCSH OVC045
     FM190100 28004KT P6SM OVC100=



000
FTUS41 KGYX 181201 AAA
TAFAUG
TAF AMD
KAUG 181201Z 1812/1912 19003KT 5SM BR VV002
     FM181400 20008KT P6SM BKN080
     FM181500 18004KT P6SM OVC050
     FM182300 25005KT P6SM VCSH OVC045
     FM190100 28004KT P6SM OVC100=



000
FTUS41 KGYX 181200 AAA
TAFCON
TAF AMD
KCON 181200Z 1812/1912 16003KT P6SM OVC005
      TEMPO 1812/1815 4SM BR SCT008 BKN060 OVC090
     FM181500 23005KT P6SM -SHRA BKN050 OVC080
      TEMPO 1819/1821 5SM -SHRA BR BKN025
     FM190300 28004KT P6SM BKN050 OVC080=



000
FTUS41 KGYX 181129 CCA
TAFLEB
TAF COR
KLEB 181129Z 1812/1912 VRB03KT 3SM -SHRA BR OVC008
     FM181400 20005KT P6SM -SHRA OVC070
     FM181800 25006KT P6SM -SHRA OVC070
     FM190000 27005KT P6SM OVC050=



000
FTUS41 KGYX 181129 CCA
TAFLEB
TAF COR
KLEB 181129Z 1812/1912 VRB03KT 3SM -SHRA BR OVC008
     FM181400 20005KT P6SM -SHRA OVC070
     FM181800 25006KT P6SM -SHRA OVC070
     FM190000 27005KT P6SM OVC050=



000
FTUS41 KGYX 181120
TAFCON
TAF
KCON 181120Z 1812/1912 16003KT P6SM OVC100
     FM181400 16003KT 6SM BR OVC025
     FM181500 23005KT P6SM BKN050
      TEMPO 1819/1821 5SM -SHRA BR BKN025
     FM190300 28004KT P6SM BKN050=



000
FTUS41 KGYX 181120
TAFPWM
TAF
KPWM 181120Z 1812/1912 21007KT P6SM BKN005 BKN090
     FM181400 20008KT P6SM OVC050
     FM182000 21008KT P6SM OVC035
     FM182300 26005KT P6SM VCSH OVC050
     FM190600 27005KT P6SM BKN100=



000
FTUS41 KGYX 181120
TAFPSM
TAF
KPSM 181120Z 1812/1912 20003KT 3SM BR BKN004 BKN090
     FM181330 20005KT P6SM BKN090
     FM181600 24007KT P6SM BKN050
     FM190300 26006KT P6SM BKN100=



000
FTUS41 KGYX 181120
TAFAUG
TAF
KAUG 181120Z 1812/1912 19003KT 1SM BR VV002
     FM181400 20008KT P6SM BKN080
     FM181500 18004KT P6SM OVC050
     FM182300 25005KT P6SM VCSH OVC045
     FM190100 28004KT P6SM OVC100=



000
FTUS41 KGYX 181120
TAFPSM
TAF
KPSM 181120Z 1812/1912 20003KT 3SM BR BKN004 BKN090
     FM181330 20005KT P6SM BKN090
     FM181600 24007KT P6SM BKN050
     FM190300 26006KT P6SM BKN100=



000
FTUS41 KGYX 181120
TAFPWM
TAF
KPWM 181120Z 1812/1912 21007KT P6SM BKN005 BKN090
     FM181400 20008KT P6SM OVC050
     FM182000 21008KT P6SM OVC035
     FM182300 26005KT P6SM VCSH OVC050
     FM190600 27005KT P6SM BKN100=



000
FTUS41 KGYX 181120
TAFCON
TAF
KCON 181120Z 1812/1912 16003KT P6SM OVC100
     FM181400 16003KT 6SM BR OVC025
     FM181500 23005KT P6SM BKN050
      TEMPO 1819/1821 5SM -SHRA BR BKN025
     FM190300 28004KT P6SM BKN050=



000
FTUS41 KGYX 181120
TAFAUG
TAF
KAUG 181120Z 1812/1912 19003KT 1SM BR VV002
     FM181400 20008KT P6SM BKN080
     FM181500 18004KT P6SM OVC050
     FM182300 25005KT P6SM VCSH OVC045
     FM190100 28004KT P6SM OVC100=



000
FTUS41 KGYX 181120
TAFLEB
TAF
KLEB 181120Z 1812/1912 VRB03KT 3SM BR BKN008
     FM181400 20005KT P6SM SCT012 BKN020 OVC040
     FM181800 25006KT P6SM BKN040
      TEMPO 1818/1821 P6SM -RA OVC025
     FM190000 27005KT P6SM OVC050=



000
FTUS41 KGYX 181120
TAFLEB
TAF
KLEB 181120Z 1812/1912 VRB03KT 3SM BR BKN008
     FM181400 20005KT P6SM SCT012 BKN020 OVC040
     FM181800 25006KT P6SM BKN040
      TEMPO 1818/1821 P6SM -RA OVC025
     FM190000 27005KT P6SM OVC050=



000
FTUS41 KGYX 181042 AAB
TAFPSM
TAF AMD
KPSM 181042Z 1811/1906 20003KT 3SM BR BKN004 BKN090
     FM181400 19006KT P6SM OVC015
     FM181600 24007KT P6SM BKN050
     FM190300 26006KT P6SM BKN100=



000
FTUS41 KGYX 181042 AAB
TAFPWM
TAF AMD
KPWM 181042Z 1811/1906 20007KT P6SM BKN005 BKN120
     FM181400 20008KT P6SM OVC050
     FM182000 21007KT P6SM OVC025
     FM182300 25005KT P6SM OVC050
     FM190100 27005KT P6SM FEW250
     FM190500 27005KT P6SM BKN050=



000
FTUS41 KGYX 181042 AAB
TAFPWM
TAF AMD
KPWM 181042Z 1811/1906 20007KT P6SM BKN005 BKN120
     FM181400 20008KT P6SM OVC050
     FM182000 21007KT P6SM OVC025
     FM182300 25005KT P6SM OVC050
     FM190100 27005KT P6SM FEW250
     FM190500 27005KT P6SM BKN050=



000
FTUS41 KGYX 181042 AAB
TAFPSM
TAF AMD
KPSM 181042Z 1811/1906 20003KT 3SM BR BKN004 BKN090
     FM181400 19006KT P6SM OVC015
     FM181600 24007KT P6SM BKN050
     FM190300 26006KT P6SM BKN100=



000
FTUS41 KGYX 181016 AAB
TAFAUG
TAF AMD
KAUG 181016Z 1810/1906 19003KT 2SM BR BKN004
     FM181400 18004KT P6SM OVC015
     FM181500 18005KT P6SM OVC050
     FM182300 25005KT P6SM SCT250
     FM190100 28004KT P6SM OVC100
     FM190200 29004KT P6SM OVC050=



000
FTUS41 KGYX 181016 AAB
TAFAUG
TAF AMD
KAUG 181016Z 1810/1906 19003KT 2SM BR BKN004
     FM181400 18004KT P6SM OVC015
     FM181500 18005KT P6SM OVC050
     FM182300 25005KT P6SM SCT250
     FM190100 28004KT P6SM OVC100
     FM190200 29004KT P6SM OVC050=



000
FTUS41 KGYX 181016 AAB
TAFLEB
TAF AMD
KLEB 181016Z 1810/1906 20008KT 1 1/2SM BR OVC008
     FM181400 20005KT P6SM SCT012 BKN020 OVC040
     FM181800 25006KT P6SM BKN040
      TEMPO 1818/1822 P6SM -RA OVC025
     FM190000 27005KT P6SM OVC050=



000
FTUS41 KGYX 181016 AAB
TAFLEB
TAF AMD
KLEB 181016Z 1810/1906 20008KT 1 1/2SM BR OVC008
     FM181400 20005KT P6SM SCT012 BKN020 OVC040
     FM181800 25006KT P6SM BKN040
      TEMPO 1818/1822 P6SM -RA OVC025
     FM190000 27005KT P6SM OVC050=



000
FTUS41 KGYX 180929 AAA
TAFLEB
TAF AMD
KLEB 180929Z 1809/1906 20008KT P6SM SCT100
     FM181400 20005KT P6SM SCT012 BKN020 OVC040
     FM181800 25006KT P6SM BKN040
      TEMPO 1818/1822 P6SM -RA OVC025
     FM190000 27005KT P6SM OVC050=



000
FTUS41 KGYX 180929 AAA
TAFCON
TAF AMD
KCON 180929Z 1809/1906 16003KT P6SM OVC100
     FM181400 16003KT 6SM BR OVC025
     FM181500 23005KT P6SM BKN050
     FM190300 28004KT P6SM BKN050=



000
FTUS41 KGYX 180928 AAA
TAFPSM
TAF AMD
KPSM 180928Z 1809/1906 20003KT P6SM BKN250
     FM181400 19006KT P6SM OVC015
     FM181600 24007KT P6SM BKN050
     FM190300 26006KT P6SM BKN100=



000
FTUS41 KGYX 180927 AAA
TAFPWM
TAF AMD
KPWM 180927Z 1809/1906 20007KT P6SM BKN120
     FM181400 20008KT P6SM OVC050
     FM182000 21007KT P6SM OVC025
     FM182300 25005KT P6SM OVC050
     FM190100 27005KT P6SM FEW250
     FM190500 27005KT P6SM BKN050=



000
FTUS41 KGYX 180927 AAA
TAFAUG
TAF AMD
KAUG 180927Z 1809/1906 19003KT P6SM OVC250
     FM181400 18004KT P6SM OVC015
     FM181500 18005KT P6SM OVC050
     FM182300 25005KT P6SM SCT250
     FM190100 28004KT P6SM OVC100
     FM190200 29004KT P6SM OVC050=



000
FTUS41 KGYX 180520
TAFPSM
TAF
KPSM 180520Z 1806/1906 20003KT P6SM BKN250
     FM181000 18004KT P6SM OVC015
     FM181100 19004KT 6SM HZ BR OVC007
     FM181400 19006KT P6SM OVC015
     FM181600 24007KT P6SM BKN050
     FM190300 26006KT P6SM BKN100=



000
FTUS41 KGYX 180520
TAFCON
TAF
KCON 180520Z 1806/1906 17003KT P6SM OVC250
     FM180900 16002KT 6SM BR OVC100
     FM181000 16003KT 4SM BR OVC025
     FM181100 17003KT 4SM BR OVC007
     FM181200 17003KT 2SM BR OVC003
     FM181300 16002KT 4SM BR OVC007
     FM181400 16003KT 6SM BR OVC025
     FM181500 23005KT P6SM BKN050
     FM190300 28004KT P6SM BKN050=



000
FTUS41 KGYX 180520
TAFLEB
TAF
KLEB 180520Z 1806/1906 20008KT P6SM SCT100
     FM181100 20004KT 3/4SM BR OVC001
     FM181400 20005KT P6SM SCT012 BKN020 OVC040 PROB30 1815/1817 5SM
      -RA BR OVC025
     FM181800 25006KT P6SM BKN040
      TEMPO 1818/1822 P6SM -RA OVC025
     FM190000 27005KT P6SM OVC050=



000
FTUS41 KGYX 180520
TAFAUG
TAF
KAUG 180520Z 1806/1906 19003KT P6SM OVC250
     FM181000 19003KT 6SM BR OVC015
     FM181100 19003KT 4SM BR OVC003
     FM181400 18004KT P6SM OVC015
     FM181500 18005KT P6SM OVC050
     FM182300 25005KT P6SM SCT250
     FM190100 28004KT P6SM OVC100
     FM190200 29004KT P6SM OVC050=



000
FTUS41 KGYX 180520
TAFPWM
TAF
KPWM 180520Z 1806/1906 21004KT P6SM BKN250
     FM181000 21005KT P6SM OVC015
     FM181100 22005KT 6SM BR OVC007
     FM181400 20007KT P6SM OVC015
     FM181700 19008KT P6SM OVC050
     FM182000 21007KT P6SM OVC025
     FM182300 25005KT P6SM OVC050
     FM190100 27005KT P6SM FEW250
     FM190500 27005KT P6SM BKN050=



000
FTUS41 KGYX 172320
TAFPSM
TAF
KPSM 172320Z 1800/1824 20004KT P6SM SCT100
     FM181400 19006KT P6SM SCT015 BKN035
     FM181800 26010KT P6SM BKN050=



000
FTUS41 KGYX 172320
TAFPWM
TAF
KPWM 172320Z 1800/1824 22004KT P6SM SCT100
     FM180900 19004KT P6SM SCT020 BKN100
     FM181500 18007KT P6SM SCT015 BKN035 OVC050=



000
FTUS41 KGYX 172320
TAFAUG
TAF
KAUG 172320Z 1800/1824 21004KT P6SM SCT100
      TEMPO 1809/1813 2SM BR SCT002
     FM181600 18007KT P6SM -SHRA SCT025 OVC035
     FM182100 26007KT P6SM BKN050=



000
FTUS41 KGYX 172320
TAFLEB
TAF
KLEB 172320Z 1800/1824 VRB03KT P6SM SCT100
     FM181400 21005KT P6SM -SHRA SCT012 BKN020 OVC040
     FM181700 26009KT P6SM BKN040=



000
FTUS41 KGYX 172320
TAFCON
TAF
KCON 172320Z 1800/1824 20004KT P6SM SCT100
     FM181500 VRB03KT P6SM -SHRA SCT015 OVC025
     FM181800 27009KT P6SM BKN050=



000
FTUS41 KGYX 172320
TAFPSM
TAF
KPSM 172320Z 1800/1824 20004KT P6SM SCT100
     FM181400 19006KT P6SM SCT015 BKN035
     FM181800 26010KT P6SM BKN050=



000
FTUS41 KGYX 172320
TAFCON
TAF
KCON 172320Z 1800/1824 20004KT P6SM SCT100
     FM181500 VRB03KT P6SM -SHRA SCT015 OVC025
     FM181800 27009KT P6SM BKN050=



000
FTUS41 KGYX 172320
TAFPWM
TAF
KPWM 172320Z 1800/1824 22004KT P6SM SCT100
     FM180900 19004KT P6SM SCT020 BKN100
     FM181500 18007KT P6SM SCT015 BKN035 OVC050=



000
FTUS41 KGYX 172320
TAFLEB
TAF
KLEB 172320Z 1800/1824 VRB03KT P6SM SCT100
     FM181400 21005KT P6SM -SHRA SCT012 BKN020 OVC040
     FM181700 26009KT P6SM BKN040=



000
FTUS41 KGYX 172320
TAFAUG
TAF
KAUG 172320Z 1800/1824 21004KT P6SM SCT100
      TEMPO 1809/1813 2SM BR SCT002
     FM181600 18007KT P6SM -SHRA SCT025 OVC035
     FM182100 26007KT P6SM BKN050=



000
FTUS41 KGYX 172002 AAA
TAFLEB
TAF AMD
KLEB 172002Z 1720/1818 23008KT P6SM SCT040
     FM172300 VRB03KT P6SM OVC100
     FM180400 19004KT P6SM OVC050
     FM180600 19004KT P6SM SCT020 BKN100
     FM180800 19004KT 2SM BR BKN002 BKN080
     FM181400 21005KT P6SM -SHRA SCT012 BKN020 OVC040=



000
FTUS41 KGYX 172002 AAA
TAFLEB
TAF AMD
KLEB 172002Z 1720/1818 23008KT P6SM SCT040
     FM172300 VRB03KT P6SM OVC100
     FM180400 19004KT P6SM OVC050
     FM180600 19004KT P6SM SCT020 BKN100
     FM180800 19004KT 2SM BR BKN002 BKN080
     FM181400 21005KT P6SM -SHRA SCT012 BKN020 OVC040=



000
FTUS41 KGYX 171905 AAA
TAFPWM
TAF AMD
KPWM 171905Z 1719/1818 25010G18KT P6SM SCT045
     FM180000 20004KT P6SM BKN250
     FM180600 19004KT P6SM SCT020 BKN100
     FM180900 20004KT 3SM BR BKN015 OVC025
     FM181500 18007KT P6SM SCT015 BKN025 OVC040=



000
FTUS41 KGYX 171904 AAA
TAFCON
TAF AMD
KCON 171904Z 1719/1818 26012G18KT P6SM SCT050
     FM180000 VRB03KT P6SM BKN250
     FM180900 17003KT 2SM BR BKN002 BKN100
     FM181500 VRB03KT P6SM -SHRA SCT008 BKN015 OVC025=



000
FTUS41 KGYX 171720
TAFLEB
TAF
KLEB 171720Z 1718/1818 24010G18KT P6SM SCT250
     FM180100 VRB03KT P6SM OVC100
     FM180400 19004KT P6SM OVC050
     FM180600 19004KT P6SM SCT020 BKN100
     FM180800 19004KT 2SM BR BKN002 BKN080
     FM181400 21005KT P6SM -SHRA SCT012 BKN020 OVC040=



000
FTUS41 KGYX 171720
TAFAUG
TAF
KAUG 171720Z 1718/1818 21009G18KT P6SM FEW025 SCT040
      TEMPO 1718/1722 SCT025 BKN050
     FM180000 21004KT P6SM SCT050
     FM180700 19004KT P6SM SCT020 BKN100
     FM180900 VRB03KT 1/2SM FG VV001
     FM181500 18005KT P6SM SCT008 BKN012 OVC025=



000
FTUS41 KGYX 171720
TAFPSM
TAF
KPSM 171720Z 1718/1818 23009G18KT P6SM SCT040 SCT120
     FM180000 19005KT P6SM SCT250
     FM180600 18005KT P6SM BKN100
     FM180900 18004KT 1SM BR BKN012 OVC025
     FM181400 VRB03KT P6SM SCT015 BKN025=



000
FTUS41 KGYX 171720
TAFCON
TAF
KCON 171720Z 1718/1818 23012G18KT P6SM SCT040 SCT080
     FM180000 VRB03KT P6SM BKN250
     FM180900 17003KT 2SM BR BKN002 BKN100
     FM181500 VRB03KT P6SM -SHRA SCT008 BKN015 OVC025=



000
FTUS41 KGYX 171720
TAFPWM
TAF
KPWM 171720Z 1718/1818 22010G18KT P6SM FEW025 SCT045
      TEMPO 1718/1722 BKN050
     FM180000 20004KT P6SM BKN250
     FM180600 19004KT P6SM SCT020 BKN100
     FM180900 20004KT 3SM BR BKN015 OVC025
     FM181500 18007KT P6SM SCT015 BKN025 OVC040=



000
FTUS41 KGYX 171336 AAB
TAFPWM
TAF AMD
KPWM 171336Z 1714/1812 22007KT P6SM BKN012 OVC025
      TEMPO 1714/1716 SCT020 BKN100
     FM171600 22010G17KT P6SM BKN100
     FM171800 21010G18KT P6SM SCT120
     FM180000 20004KT P6SM BKN250
     FM180600 19004KT P6SM SCT020 BKN100
      TEMPO 1806/1810 2SM BR=



000
FTUS41 KGYX 171329 AAA
TAFPSM
TAF AMD
KPSM 171329Z 1713/1812 18006KT P6SM BKN012 OVC020
      TEMPO 1713/1715 SCT025 BKN100
     FM171500 23009KT P6SM BKN100
     FM171700 21009KT P6SM SCT120
     FM180000 19005KT P6SM SCT250
     FM180400 18005KT P6SM BKN100
     FM180500 19004KT P6SM BKN050
     FM181000 VRB03KT P6SM SCT020 BKN100=



000
FTUS41 KGYX 171222 AAA
TAFPWM
TAF AMD
KPWM 171222Z 1712/1812 22007KT 2SM BR SCT004 BKN060
      TEMPO 1712/1715 1/2SM FG BKN002 BKN090
     FM171500 22010G17KT P6SM SCT250
     FM180000 20004KT P6SM BKN250
     FM180600 19004KT P6SM SCT020 BKN100
      TEMPO 1806/1810 2SM BR=



000
FTUS41 KGYX 171120
TAFPSM
TAF
KPSM 171120Z 1712/1812 18006KT 3/4SM BR BKN002 OVC006
      TEMPO 1712/1713 5SM BR BKN006
     FM171300 19007KT P6SM BKN080
     FM171500 23009KT P6SM BKN250
     FM180000 19005KT P6SM SCT250
     FM180400 18005KT P6SM BKN100
     FM180500 19004KT P6SM BKN050
     FM181000 VRB03KT P6SM SCT020 BKN100=



000
FTUS41 KGYX 171120
TAFCON
TAF
KCON 171120Z 1712/1812 17004KT 2SM BR BKN090
     FM171300 19005KT P6SM SCT080
     FM180000 VRB03KT P6SM OVC250
     FM180400 17002KT P6SM OVC100
     FM180600 19004KT P6SM SCT020 BKN100
      TEMPO 1806/1810 1SM BR BKN012=



000
FTUS41 KGYX 171120
TAFLEB
TAF
KLEB 171120Z 1712/1812 20005KT P6SM BKN035
     FM171400 22007KT P6SM SCT250
     FM180100 VRB03KT P6SM OVC100
     FM180400 19004KT P6SM OVC050
     FM180600 19004KT P6SM SCT020 BKN100
      TEMPO 1806/1810 1SM BR BKN010=



000
FTUS41 KGYX 171120
TAFPWM
TAF
KPWM 171120Z 1712/1812 22007KT 2SM -RA BR SCT004 BKN060
      TEMPO 1712/1716 P6SM NSW SCT002 BKN090
     FM171600 22010G17KT P6SM SCT250
     FM180000 20004KT P6SM BKN250
     FM180600 19004KT P6SM SCT020 BKN100
      TEMPO 1806/1810 2SM BR=



000
FTUS41 KGYX 171120
TAFAUG
TAF
KAUG 171120Z 1712/1812 17006KT P6SM -RA BKN004
     FM171300 20007KT P6SM BKN020
     FM171600 23007KT P6SM OVC035
     FM171800 22006G14KT P6SM BKN120 BKN250
     FM180000 21004KT P6SM OVC250
     FM180700 19004KT P6SM SCT020 BKN100
      TEMPO 1807/1811 1 1/2SM BR BKN001=



000
FTUS41 KGYX 171120
TAFCON
TAF
KCON 171120Z 1712/1812 17004KT 2SM BR BKN090
     FM171300 19005KT P6SM SCT080
     FM180000 VRB03KT P6SM OVC250
     FM180400 17002KT P6SM OVC100
     FM180600 19004KT P6SM SCT020 BKN100
      TEMPO 1806/1810 1SM BR BKN012=



000
FTUS41 KGYX 171120
TAFLEB
TAF
KLEB 171120Z 1712/1812 20005KT P6SM BKN035
     FM171400 22007KT P6SM SCT250
     FM180100 VRB03KT P6SM OVC100
     FM180400 19004KT P6SM OVC050
     FM180600 19004KT P6SM SCT020 BKN100
      TEMPO 1806/1810 1SM BR BKN010=



000
FTUS41 KGYX 171120
TAFPSM
TAF
KPSM 171120Z 1712/1812 18006KT 3/4SM BR BKN002 OVC006
      TEMPO 1712/1713 5SM BR BKN006
     FM171300 19007KT P6SM BKN080
     FM171500 23009KT P6SM BKN250
     FM180000 19005KT P6SM SCT250
     FM180400 18005KT P6SM BKN100
     FM180500 19004KT P6SM BKN050
     FM181000 VRB03KT P6SM SCT020 BKN100=



000
FTUS41 KGYX 171120
TAFPWM
TAF
KPWM 171120Z 1712/1812 22007KT 2SM -RA BR SCT004 BKN060
      TEMPO 1712/1716 P6SM NSW SCT002 BKN090
     FM171600 22010G17KT P6SM SCT250
     FM180000 20004KT P6SM BKN250
     FM180600 19004KT P6SM SCT020 BKN100
      TEMPO 1806/1810 2SM BR=



000
FTUS41 KGYX 171120
TAFAUG
TAF
KAUG 171120Z 1712/1812 17006KT P6SM -RA BKN004
     FM171300 20007KT P6SM BKN020
     FM171600 23007KT P6SM OVC035
     FM171800 22006G14KT P6SM BKN120 BKN250
     FM180000 21004KT P6SM OVC250
     FM180700 19004KT P6SM SCT020 BKN100
      TEMPO 1807/1811 1 1/2SM BR BKN001=



000
FTUS41 KGYX 170955 AAA
TAFLEB
TAF AMD
KLEB 170955Z 1710/1806 VRB03KT P6SM BKN030
     FM180000 19005KT P6SM BKN250
     FM180100 VRB03KT P6SM OVC100
     FM180400 19004KT P6SM OVC050=



    US Dept of Commerce
    National Oceanic and Atmospheric Administration
    National Weather Service
    1325 East West Highway
    Silver Spring, MD 20910
    Page Author: NWS Internet Services Team
Disclaimer
Information Quality
Credits
Glossary
Privacy Policy
Freedom of Information Act (FOIA)
About Us
Career Opportunities